Rudyard, MI (49780)

3:45 AM EDT on August 04, 2015 (GMT -0400)
MesoWest | | Change Station
CLOSE
Current Station
Personal Weather Station
Location: Rudyard, MI
Elevation: 668 ft
Nearby Weather Stations

Elev 668 ft 46.19 °N, 84.56 °W | Updated 35 minutes ago

Mostly Cloudy
Mostly Cloudy
61 °F
Feels Like 61 °F
N
4
Wind Variable Wind from WSW
Gusts 6.0 mph

Today
High -- | Low -- °F
--% Chance of Precip.
Yesterday
High -- | Low -- °F
Precip. -- in
6:23 AM 9:04 PM
Waning Gibbous, 80% visible
Pressure 29.81 in
Visibility 10.0 miles
Clouds Overcast 3400 ft
Dew Point 61 °F
Humidity 99%
Rainfall in
Snow Depth Not available.
UV 0 out of 12
Pollen 5.40 out of 12
Air Quality Not available.
Flu Activity Not available.
METAR KCIU 040735Z AUTO 00000KT 10SM OVC034 13/12 A2981 RMK AO1

More Conditions Fewer Conditions

Pressure 29.81 in
Visibility 10.0 miles
Clouds Overcast 3400 ft
Dew Point 61 °F
Humidity 99%
Rainfall in
Snow Depth Not available.
UV 0 out of 12
Pollen 5.40 out of 12
Air Quality Not available.
Flu Activity Not available.
METAR KCIU 040735Z AUTO 00000KT 10SM OVC034 13/12 A2981 RMK AO1

More Conditions Fewer Conditions

Nowcast | as of 2:00 am EDT on August 4, 2015

Mostly cloudy. At 5 am...mostly cloudy. Temperature 52. Northwest winds 6 mph. Mostly cloudy. Mostly cloudy.

×

10-Day Weather Forecast

×

Almanac

Astronomy

Aug. 04, 2015 Rise Set
Actual Time
Civil Twilight
Nautical Twilight
Astronomical Twilight
Moon
Length of Visible Light
Length of Day
Tomorrow will be .
, % of the Moon is Illuminated

Today's Extremes

State Highs State Lows

Community

WunderPhotos

Upload Photos

1,843,877 photos uploaded!

WunderBlogs® & News

Nearby

Air Quality

  Air Quality AQ Index Pollutant
Not available.

Snow Depth

Station Depth Elevation

Earthquake Activity

City Distance Mag. Time & Date
Minimum magnitude displayed is 2.5.

Coastal Water Temperatures

Place Temperature

Stations

Nearby Weather Stations

Station Location Temp. Windchill Dew Point Humidity Wind Precip. Elev Updated Type